KBGD/BGD METAR and TAF weather

Enter ICAO airport designator
Station Type Date Time Source
KBGD METAR 2019/04/18 20:51 UTC NOAA

KBGD 182051Z AUTO 35022G29KT 10SM BKN080 BKN095 18/M01 A3006 RMK AO2 PK WND 35030/2024 SLP160 T01781006 56015


Station Type Date Time Source
KBGD Decoded METAR 2019/04/18 20:51 UTC NOAA

BORGER HUTCHINSON CO AIRPORT , TX, United States (KBGD) 35-42N 101-24W 927M
Apr 18, 2019 - 04:51 PM EDT / 2019.04.18 2051 UTC
Wind: from the N (350 degrees) at 25 MPH (22 KT) gusting to 33 MPH (29 KT):0
Visibility: 10 mile(s):0
Sky conditions: mostly cloudy
Temperature: 64.0 F (17.8 C)
Dew Point: 30.9 F (-0.6 C)
Relative Humidity: 28%
Pressure (altimeter): 30.06 in. Hg (1017 hPa)
Pressure tendency: 0.04 inches (1.5 hPa) lower than three hours ago
ob: KBGD 182051Z AUTO 35022G29KT 10SM BKN080 BKN095 18/M01 A3006 RMK AO2 PK WND 35030/2024 SLP160 T01781006 56015
cycle: 21

Station Type Date Time Source
KBGD TAF UTC NOAA

Error!

Example: see airport list